Time,TemperatureF,DewpointF,PressureIn,WindDirection,WindDirectionDegrees,WindSpeedMPH,WindSpeedGustMPH,Humidity,HourlyPrecipIn,Conditions,Clouds,dailyrainin,SolarRadiationWatts/m^2,SoftwareType,DateUTC
2013-01-11 00:03:00,47.0,45.4,29.86,SSE,165,9.4,12.7,94,0.00,RA,,0.00,0.0,WeatherDisplay:10.37,2013-01-11 06:03:00,
2013-01-11 00:08:00,47.2,45.3,29.86,South,182,8.6,13.8,93,0.00,CLR,,0.00,0.0,WeatherDisplay:10.37,2013-01-11 06:08:00,
2013-01-11 00:13:00,47.2,45.3,29.87,SSE,168,8.5,11.5,93,0.00,CLR,,0.00,0.0,WeatherDisplay:10.37,2013-01-11 06:13:00,
2013-01-11 00:18:00,47.1,45.2,29.87,South,170,9.0,11.5,93,0.00,CLR,,0.00,0.0,WeatherDisplay:10.37,2013-01-11 06:18:00,
2013-01-11 00:23:00,47.2,45.6,29.87,South,176,9.5,14.0,94,0.00,CLR,,0.00,0.0,WeatherDisplay:10.37,2013-01-11 06:23:00,
2013-01-11 00:28:00,47.0,45.4,29.87,South,181,7.9,9.2,94,0.00,CLR,,0.00,0.0,WeatherDisplay:10.37,2013-01-11 06:28:00,
2013-01-11 00:33:00,46.9,45.3,29.87,South,181,5.8,7.0,94,0.00,CLR,,0.00,0.0,WeatherDisplay:10.37,2013-01-11 06:33:00,
2013-01-11 00:38:00,47.3,45.4,29.87,South,191,9.2,12.7,93,0.00,CLR,,0.00,0.0,WeatherDisplay:10.37,2013-01-11 06:38:00,
2013-01-11 00:43:00,47.0,45.1,29.87,South,169,5.6,8.1,93,0.00,CLR,,0.00,0.0,WeatherDisplay:10.37,2013-01-11 06:43:00,
2013-01-11 00:48:00,47.4,45.5,29.87,South,175,8.8,10.4,93,0.00,CLR,,0.00,0.0,WeatherDisplay:10.37,2013-01-11 06:48:00,
2013-01-11 00:53:00,47.2,45.3,29.86,South,180,7.5,9.2,93,0.00,CLR,,0.00,0.0,WeatherDisplay:10.37,2013-01-11 06:53:00,
2013-01-11 00:58:00,47.2,45.3,29.86,South,186,6.8,9.2,93,0.00,CLR,,0.00,0.0,WeatherDisplay:10.37,2013-01-11 06:58:00,
2013-01-11 01:03:00,47.3,45.4,29.87,SSW,196,8.6,11.5,93,0.00,CLR,,0.00,0.0,WeatherDisplay:10.37,2013-01-11 07:03:00,
2013-01-11 01:08:00,47.4,45.2,29.87,SSW,201,7.2,10.0,92,0.00,CLR,,0.00,0.0,WeatherDisplay:10.37,2013-01-11 07:08:00,
2013-01-11 01:13:00,47.6,45.4,29.87,SSW,203,9.9,10.0,92,0.00,CLR,,0.00,0.0,WeatherDisplay:10.37,2013-01-11 07:13:00,
2013-01-11 01:18:00,47.5,45.3,29.87,South,190,8.8,11.5,92,0.00,CLR,,0.00,0.0,WeatherDisplay:10.37,2013-01-11 07:18:00,
2013-01-11 01:23:00,47.4,45.2,29.87,SSW,200,7.6,11.5,92,0.00,CLR,,0.00,0.0,WeatherDisplay:10.37,2013-01-11 07:23:00,
2013-01-11 01:28:00,47.5,45.3,29.87,SSW,193,11.9,15.0,92,0.00,CLR,,0.00,0.0,WeatherDisplay:10.37,2013-01-11 07:28:00,
2013-01-11 01:33:00,47.4,45.2,29.87,SSW,195,9.5,11.5,92,0.00,CLR,,0.00,0.0,WeatherDisplay:10.37,2013-01-11 07:33:00,
2013-01-11 01:38:00,47.3,45.1,29.87,South,190,10.7,11.5,92,0.00,CLR,,0.00,0.0,WeatherDisplay:10.37,2013-01-11 07:38:00,
2013-01-11 01:43:00,47.1,45.2,29.86,South,185,9.9,11.5,93,0.00,CLR,,0.00,0.0,WeatherDisplay:10.37,2013-01-11 07:43:00,
2013-01-11 01:48:00,47.0,45.1,29.85,South,170,11.3,13.8,93,0.00,CLR,,0.00,0.0,WeatherDisplay:10.37,2013-01-11 07:48:00,
2013-01-11 01:53:00,47.0,45.1,29.86,South,186,6.7,11.5,93,0.00,CLR,,0.00,0.0,WeatherDisplay:10.37,2013-01-11 07:53:00,
2013-01-11 01:58:00,46.9,44.7,29.85,South,188,7.6,10.4,92,0.00,CLR,,0.00,0.0,WeatherDisplay:10.37,2013-01-11 07:58:00,
2013-01-11 02:03:00,46.9,45.0,29.85,SSW,193,10.2,11.5,93,0.00,CLR,,0.00,0.0,WeatherDisplay:10.37,2013-01-11 08:03:00,
2013-01-11 02:08:00,46.9,45.0,29.86,South,185,7.3,11.5,93,0.00,CLR,,0.00,0.0,WeatherDisplay:10.37,2013-01-11 08:08:00,
2013-01-11 02:13:00,46.9,45.0,29.86,SSW,193,9.9,12.7,93,0.00,CLR,,0.00,0.0,WeatherDisplay:10.37,2013-01-11 08:13:00,
2013-01-11 02:18:00,47.0,44.8,29.86,South,185,8.6,11.5,92,0.00,CLR,,0.00,0.0,WeatherDisplay:10.37,2013-01-11 08:18:00,
2013-01-11 02:23:00,46.7,44.8,29.86,South,185,8.9,10.4,93,0.00,CLR,,0.00,0.0,WeatherDisplay:10.37,2013-01-11 08:23:00,
2013-01-11 02:28:00,46.9,44.7,29.85,South,189,10.3,13.8,92,0.00,CLR,,0.00,0.0,WeatherDisplay:10.37,2013-01-11 08:28:00,
2013-01-11 02:33:00,47.0,44.8,29.85,SSW,192,8.0,13.8,92,0.00,CLR,,0.00,0.0,WeatherDisplay:10.37,2013-01-11 08:33:00,
2013-01-11 02:38:00,46.9,44.7,29.85,South,181,8.6,11.5,92,0.00,CLR,,0.00,0.0,WeatherDisplay:10.37,2013-01-11 08:38:00,
2013-01-11 02:43:00,46.8,44.6,29.85,South,189,11.5,13.0,92,0.00,CLR,,0.00,0.0,WeatherDisplay:10.37,2013-01-11 08:43:00,
2013-01-11 02:48:00,46.8,44.6,29.85,South,178,10.2,11.5,92,0.00,CLR,,0.00,0.0,WeatherDisplay:10.37,2013-01-11 08:48:00,
2013-01-11 02:53:00,46.6,44.4,29.85,South,189,10.5,14.0,92,0.00,CLR,,0.00,0.0,WeatherDisplay:10.37,2013-01-11 08:53:00,
2013-01-11 02:58:00,46.6,44.4,29.85,SSW,195,9.5,10.4,92,0.00,CLR,,0.00,0.0,WeatherDisplay:10.37,2013-01-11 08:58:00,
2013-01-11 03:03:00,46.5,44.3,29.85,South,170,8.5,11.5,92,0.00,CLR,,0.00,0.0,WeatherDisplay:10.37,2013-01-11 09:03:00,
2013-01-11 03:08:00,46.6,44.4,29.85,South,184,9.0,11.5,92,0.00,CLR,,0.00,0.0,WeatherDisplay:10.37,2013-01-11 09:08:00,
2013-01-11 03:13:00,46.6,44.4,29.84,South,186,10.2,11.5,92,0.00,CLR,,0.00,0.0,WeatherDisplay:10.37,2013-01-11 09:13:00,
2013-01-11 03:18:00,46.5,44.3,29.84,SSW,195,7.4,12.7,92,0.00,CLR,,0.00,0.0,WeatherDisplay:10.37,2013-01-11 09:18:00,
2013-01-11 03:23:00,46.7,44.5,29.84,SSW,192,9.5,11.5,92,0.00,CLR,,0.00,0.0,WeatherDisplay:10.37,2013-01-11 09:23:00,
2013-01-11 03:28:00,46.5,44.3,29.83,South,188,8.8,13.0,92,0.00,CLR,,0.00,0.0,WeatherDisplay:10.37,2013-01-11 09:28:00,
2013-01-11 03:33:00,46.3,44.1,29.82,South,176,7.9,10.4,92,0.00,CLR,,0.00,0.0,WeatherDisplay:10.37,2013-01-11 09:33:00,
2013-01-11 03:38:00,46.6,44.4,29.82,South,187,8.7,11.5,92,0.00,CLR,,0.00,0.0,WeatherDisplay:10.37,2013-01-11 09:38:00,
2013-01-11 03:43:00,46.6,44.4,29.82,South,187,8.6,9.2,92,0.00,CLR,,0.00,0.0,WeatherDisplay:10.37,2013-01-11 09:43:00,
2013-01-11 03:48:00,46.5,44.0,29.82,South,186,8.7,10.4,91,0.00,CLR,,0.00,0.0,WeatherDisplay:10.37,2013-01-11 09:48:00,
2013-01-11 03:53:00,46.4,44.2,29.83,South,183,6.9,9.2,92,0.00,CLR,,0.00,0.0,WeatherDisplay:10.37,2013-01-11 09:53:00,
2013-01-11 03:58:00,46.2,43.7,29.83,South,187,6.0,9.0,91,0.00,CLR,,0.00,0.0,WeatherDisplay:10.37,2013-01-11 09:58:00,
2013-01-11 04:03:00,46.2,44.0,29.82,South,185,7.8,9.2,92,0.00,CLR,,0.00,0.0,WeatherDisplay:10.37,2013-01-11 10:03:00,
2013-01-11 04:08:00,46.2,44.0,29.82,South,183,7.6,8.1,92,0.00,CLR,,0.00,0.0,WeatherDisplay:10.37,2013-01-11 10:08:00,
2013-01-11 04:13:00,46.1,43.9,29.82,South,179,7.6,9.2,92,0.00,CLR,,0.00,0.0,WeatherDisplay:10.37,2013-01-11 10:13:00,
2013-01-11 04:18:00,46.1,43.9,29.82,South,181,7.0,10.4,92,0.00,CLR,,0.00,0.0,WeatherDisplay:10.37,2013-01-11 10:18:00,
2013-01-11 04:23:00,46.1,43.9,29.82,South,178,8.1,11.5,92,0.00,CLR,,0.00,0.0,WeatherDisplay:10.37,2013-01-11 10:23:00,
2013-01-11 04:28:00,46.1,43.9,29.81,South,181,6.8,11.5,92,0.00,CLR,,0.00,0.0,WeatherDisplay:10.37,2013-01-11 10:28:00,
2013-01-11 04:33:00,45.7,43.5,29.81,South,183,7.7,9.0,92,0.00,CLR,,0.00,0.0,WeatherDisplay:10.37,2013-01-11 10:33:00,
2013-01-11 04:38:00,45.9,43.7,29.82,South,190,7.8,11.5,92,0.00,CLR,,0.00,0.0,WeatherDisplay:10.37,2013-01-11 10:38:00,
2013-01-11 04:43:00,45.9,43.7,29.81,South,185,7.9,10.4,92,0.00,CLR,,0.00,0.0,WeatherDisplay:10.37,2013-01-11 10:43:00,
2013-01-11 04:48:00,46.4,44.2,29.81,South,183,12.3,12.7,92,0.00,CLR,,0.00,0.0,WeatherDisplay:10.37,2013-01-11 10:48:00,
2013-01-11 04:53:00,46.6,44.1,29.81,South,183,12.7,15.0,91,0.00,CLR,,0.00,0.0,WeatherDisplay:10.37,2013-01-11 10:53:00,
2013-01-11 04:58:00,46.4,43.9,29.81,South,186,12.0,15.0,91,0.00,CLR,,0.00,0.0,WeatherDisplay:10.37,2013-01-11 10:58:00,
2013-01-11 05:03:00,46.7,44.2,29.80,SSW,192,13.2,16.1,91,0.00,CLR,,0.00,0.0,WeatherDisplay:10.37,2013-01-11 11:03:00,
2013-01-11 05:08:00,46.6,44.1,29.80,SSW,194,11.2,13.8,91,0.00,CLR,,0.00,0.0,WeatherDisplay:10.37,2013-01-11 11:08:00,
2013-01-11 05:13:00,46.7,44.2,29.80,SSW,198,11.6,13.0,91,0.00,CLR,,0.00,0.0,WeatherDisplay:10.37,2013-01-11 11:13:00,
2013-01-11 05:18:00,46.5,44.0,29.80,South,185,8.8,12.7,91,0.00,CLR,,0.00,0.0,WeatherDisplay:10.37,2013-01-11 11:18:00,
2013-01-11 05:23:00,46.7,43.9,29.80,South,187,9.3,15.0,90,0.00,CLR,,0.00,0.0,WeatherDisplay:10.37,2013-01-11 11:23:00,
2013-01-11 05:28:00,46.7,43.9,29.80,SSW,195,10.8,11.5,90,0.00,CLR,,0.00,0.0,WeatherDisplay:10.37,2013-01-11 11:28:00,
2013-01-11 05:33:00,47.0,44.2,29.80,South,183,12.4,13.8,90,0.00,CLR,,0.00,0.0,WeatherDisplay:10.37,2013-01-11 11:33:00,
2013-01-11 05:38:00,46.6,43.8,29.80,South,185,8.4,12.7,90,0.00,CLR,,0.00,0.0,WeatherDisplay:10.37,2013-01-11 11:38:00,
2013-01-11 05:43:00,46.9,44.1,29.80,SSW,197,9.4,11.5,90,0.00,CLR,,0.00,0.0,WeatherDisplay:10.37,2013-01-11 11:43:00,
2013-01-11 05:48:00,46.9,44.1,29.80,South,180,10.3,12.7,90,0.00,CLR,,0.00,0.0,WeatherDisplay:10.37,2013-01-11 11:48:00,
2013-01-11 05:53:00,47.0,43.9,29.80,SSW,192,10.9,11.5,89,0.00,CLR,,0.00,0.0,WeatherDisplay:10.37,2013-01-11 11:53:00,
2013-01-11 05:58:00,46.7,43.9,29.80,South,190,10.3,13.8,90,0.00,CLR,,0.00,0.0,WeatherDisplay:10.37,2013-01-11 11:58:00,
2013-01-11 06:03:00,46.9,44.1,29.79,South,184,9.0,12.7,90,0.00,CLR,,0.00,0.0,WeatherDisplay:10.37,2013-01-11 12:03:00,
2013-01-11 06:08:00,46.7,43.9,29.79,South,183,8.0,11.5,90,0.00,CLR,,0.00,0.0,WeatherDisplay:10.37,2013-01-11 12:08:00,
2013-01-11 06:13:00,46.4,43.6,29.80,SSE,168,9.3,10.0,90,0.00,CLR,,0.00,0.0,WeatherDisplay:10.37,2013-01-11 12:13:00,
2013-01-11 06:18:00,46.4,43.6,29.80,South,183,7.5,10.4,90,0.00,CLR,,0.00,0.0,WeatherDisplay:10.37,2013-01-11 12:18:00,
2013-01-11 06:23:00,46.4,43.6,29.80,South,182,7.7,11.5,90,0.00,CLR,,0.00,0.0,WeatherDisplay:10.37,2013-01-11 12:23:00,
2013-01-11 06:28:00,46.7,43.6,29.80,South,187,8.6,11.5,89,0.00,CLR,,0.00,0.0,WeatherDisplay:10.37,2013-01-11 12:28:00,
2013-01-11 06:33:00,46.2,43.4,29.81,South,187,8.1,9.2,90,0.00,CLR,,0.00,0.0,WeatherDisplay:10.37,2013-01-11 12:33:00,
2013-01-11 06:38:00,45.9,43.1,29.81,South,188,6.8,8.1,90,0.00,CLR,,0.00,0.0,WeatherDisplay:10.37,2013-01-11 12:38:00,
2013-01-11 06:43:00,45.8,43.0,29.81,SSW,197,6.4,8.0,90,0.00,CLR,,0.00,0.0,WeatherDisplay:10.37,2013-01-11 12:43:00,
2013-01-11 06:48:00,45.7,43.2,29.81,SSW,197,6.3,8.1,91,0.00,CLR,,0.00,0.0,WeatherDisplay:10.37,2013-01-11 12:48:00,
2013-01-11 06:53:00,45.8,43.0,29.82,SSW,197,5.8,6.0,90,0.00,CLR,,0.00,0.0,WeatherDisplay:10.37,2013-01-11 12:53:00,
2013-01-11 06:58:00,45.5,42.7,29.82,SSW,197,6.1,6.9,90,0.00,CLR,,0.00,0.0,WeatherDisplay:10.37,2013-01-11 12:58:00,
2013-01-11 07:03:00,45.3,42.8,29.82,SSW,197,6.3,6.9,91,0.00,CLR,,0.00,0.0,WeatherDisplay:10.37,2013-01-11 13:03:00,
2013-01-11 07:08:00,45.1,42.6,29.82,SSW,197,6.3,8.1,91,0.00,CLR,,0.00,0.0,WeatherDisplay:10.37,2013-01-11 13:08:00,
2013-01-11 07:13:00,45.2,42.4,29.82,SSW,196,7.0,9.2,90,0.00,CLR,,0.00,0.0,WeatherDisplay:10.37,2013-01-11 13:13:00,
2013-01-11 07:18:00,45.3,42.5,29.82,South,187,6.6,9.2,90,0.00,CLR,,0.00,0.0,WeatherDisplay:10.37,2013-01-11 13:18:00,
2013-01-11 07:23:00,45.8,42.7,29.82,South,181,7.4,7.4,89,0.00,CLR,,0.00,0.0,WeatherDisplay:10.37,2013-01-11 13:23:00,
2013-01-11 07:28:00,46.0,42.9,29.82,South,178,7.2,10.4,89,0.00,CLR,,0.00,0.0,WeatherDisplay:10.37,2013-01-11 13:28:00,
2013-01-11 07:33:00,46.4,43.0,29.82,South,179,10.7,13.8,88,0.00,CLR,,0.00,0.0,WeatherDisplay:10.37,2013-01-11 13:33:00,
2013-01-11 07:38:00,46.1,42.7,29.82,South,182,8.6,11.0,88,0.00,CLR,,0.00,0.0,WeatherDisplay:10.37,2013-01-11 13:38:00,
2013-01-11 07:43:00,46.5,43.1,29.83,South,176,9.7,10.4,88,0.00,CLR,,0.00,7.7,WeatherDisplay:10.37,2013-01-11 13:43:00,
2013-01-11 07:48:00,46.5,43.1,29.83,South,183,9.8,12.7,88,0.00,CLR,,0.00,13.2,WeatherDisplay:10.37,2013-01-11 13:48:00,
2013-01-11 07:53:00,46.7,43.3,29.83,South,185,11.1,17.3,88,0.00,CLR,,0.00,19.8,WeatherDisplay:10.37,2013-01-11 13:53:00,
2013-01-11 07:58:00,47.0,43.3,29.83,SSW,209,11.6,16.1,87,0.00,CLR,,0.00,28.6,WeatherDisplay:10.37,2013-01-11 13:58:00,
2013-01-11 08:03:00,47.0,43.3,29.83,SSW,193,9.7,12.7,87,0.00,CLR,,0.00,35.2,WeatherDisplay:10.37,2013-01-11 14:03:00,
2013-01-11 08:08:00,47.1,43.4,29.83,SSW,193,9.7,12.7,87,0.00,CLR,,0.00,36.3,WeatherDisplay:10.37,2013-01-11 14:08:00,
2013-01-11 08:13:00,47.3,43.6,29.83,South,191,8.7,13.8,87,0.00,CLR,,0.00,40.7,WeatherDisplay:10.37,2013-01-11 14:13:00,
2013-01-11 08:18:00,47.6,43.9,29.83,South,183,9.3,11.5,87,0.00,CLR,,0.00,44.0,WeatherDisplay:10.37,2013-01-11 14:18:00,
2013-01-11 08:23:00,48.1,43.8,29.83,South,171,9.8,12.7,85,0.00,CLR,,0.00,44.0,WeatherDisplay:10.37,2013-01-11 14:23:00,
2013-01-11 08:28:00,48.1,43.8,29.83,South,183,9.9,11.5,85,0.00,CLR,,0.00,40.7,WeatherDisplay:10.37,2013-01-11 14:28:00,
2013-01-11 08:33:00,48.2,43.9,29.83,South,179,10.3,15.0,85,0.00,CLR,,0.00,38.5,WeatherDisplay:10.37,2013-01-11 14:33:00,
2013-01-11 08:38:00,48.5,44.2,29.84,SSW,193,9.1,16.1,85,0.00,CLR,,0.00,42.9,WeatherDisplay:10.37,2013-01-11 14:38:00,
2013-01-11 08:43:00,49.0,44.4,29.84,SSW,193,10.7,13.8,84,0.00,CLR,,0.00,61.6,WeatherDisplay:10.37,2013-01-11 14:43:00,
2013-01-11 08:48:00,49.3,44.7,29.84,South,172,9.3,12.0,84,0.00,CLR,,0.00,75.9,WeatherDisplay:10.37,2013-01-11 14:48:00,
2013-01-11 08:53:00,49.9,44.9,29.84,South,185,10.3,13.0,83,0.00,CLR,,0.00,84.7,WeatherDisplay:10.37,2013-01-11 14:53:00,
2013-01-11 08:58:00,50.4,45.1,29.84,South,185,10.0,13.0,82,0.00,CLR,,0.00,106.7,WeatherDisplay:10.37,2013-01-11 14:58:00,
2013-01-11 09:03:00,51.0,45.7,29.83,South,184,13.0,13.8,82,0.00,CLR,,0.00,86.9,WeatherDisplay:10.37,2013-01-11 15:03:00,
2013-01-11 09:08:00,51.5,45.9,29.84,South,182,10.7,13.8,81,0.00,CLR,,0.00,94.6,WeatherDisplay:10.37,2013-01-11 15:08:00,
2013-01-11 09:13:00,51.9,45.6,29.84,South,181,10.4,13.8,79,0.00,CLR,,0.00,115.5,WeatherDisplay:10.37,2013-01-11 15:13:00,
2013-01-11 09:18:00,52.0,45.7,29.84,SSW,201,12.6,14.0,79,0.00,CLR,,0.00,114.4,WeatherDisplay:10.37,2013-01-11 15:18:00,
2013-01-11 09:23:00,52.0,45.7,29.83,South,185,11.9,20.7,79,0.00,CLR,,0.00,132.0,WeatherDisplay:10.37,2013-01-11 15:23:00,
2013-01-11 09:28:00,52.0,45.4,29.84,South,187,13.2,18.4,78,0.00,CLR,,0.00,119.9,WeatherDisplay:10.37,2013-01-11 15:28:00,
2013-01-11 09:33:00,52.4,45.7,29.84,South,182,12.9,18.4,78,0.00,CLR,,0.00,196.9,WeatherDisplay:10.37,2013-01-11 15:33:00,
2013-01-11 09:38:00,52.9,45.9,29.84,South,190,9.4,16.1,77,0.00,CLR,,0.00,196.9,WeatherDisplay:10.37,2013-01-11 15:38:00,
2013-01-11 09:43:00,53.2,46.2,29.83,SSW,201,13.1,17.0,77,0.00,CLR,,0.00,290.4,WeatherDisplay:10.37,2013-01-11 15:43:00,
2013-01-11 09:48:00,54.0,46.6,29.83,SSW,195,10.6,13.8,76,0.00,CLR,,0.00,375.1,WeatherDisplay:10.37,2013-01-11 15:48:00,
2013-01-11 09:53:00,54.3,46.9,29.82,South,169,11.4,16.1,76,0.00,CLR,,0.00,379.5,WeatherDisplay:10.37,2013-01-11 15:53:00,
2013-01-11 09:58:00,54.9,47.1,29.83,SSW,201,10.8,14.0,75,0.00,CLR,,0.00,408.1,WeatherDisplay:10.37,2013-01-11 15:58:00,
2013-01-11 10:03:00,53.6,46.2,29.83,SSW,195,10.0,17.3,76,0.00,CLR,,0.00,211.2,WeatherDisplay:10.37,2013-01-11 16:03:00,
2013-01-11 10:08:00,54.9,46.4,29.82,South,185,9.4,13.8,73,0.00,CLR,,0.00,415.8,WeatherDisplay:10.37,2013-01-11 16:08:00,
2013-01-11 10:13:00,55.4,47.2,29.83,SSW,200,12.0,15.0,74,0.00,CLR,,0.00,405.9,WeatherDisplay:10.37,2013-01-11 16:13:00,
2013-01-11 10:18:00,56.1,47.2,29.82,South,183,6.9,12.7,72,0.00,CLR,,0.00,396.0,WeatherDisplay:10.37,2013-01-11 16:18:00,
2013-01-11 10:23:00,56.1,47.2,29.82,SSW,192,10.8,16.1,72,0.00,CLR,,0.00,458.7,WeatherDisplay:10.37,2013-01-11 16:23:00,
2013-01-11 10:28:00,56.6,46.9,29.82,South,181,11.7,17.3,70,0.00,CLR,,0.00,403.7,WeatherDisplay:10.37,2013-01-11 16:28:00,
2013-01-11 10:33:00,57.2,47.9,29.82,South,187,8.8,18.4,71,0.00,CLR,,0.00,489.5,WeatherDisplay:10.37,2013-01-11 16:33:00,
2013-01-11 10:38:00,57.7,47.6,29.82,South,173,11.3,17.3,69,0.00,CLR,,0.00,487.3,WeatherDisplay:10.37,2013-01-11 16:38:00,
2013-01-11 10:43:00,58.5,48.4,29.81,SSE,156,13.6,15.0,69,0.00,CLR,,0.00,515.9,WeatherDisplay:10.37,2013-01-11 16:43:00,
2013-01-11 10:48:00,59.3,49.1,29.81,SW,218,11.2,13.0,69,0.00,CLR,,0.00,530.2,WeatherDisplay:10.37,2013-01-11 16:48:00,
2013-01-11 10:53:00,60.2,48.4,29.80,South,190,7.8,13.8,65,0.00,CLR,,0.00,548.9,WeatherDisplay:10.37,2013-01-11 16:53:00,
2013-01-11 10:58:00,60.3,48.9,29.81,South,190,14.6,18.4,66,0.00,CLR,,0.00,581.9,WeatherDisplay:10.37,2013-01-11 16:58:00,
2013-01-11 11:03:00,61.1,49.2,29.81,South,190,9.9,15.0,65,0.00,CLR,,0.00,537.9,WeatherDisplay:10.37,2013-01-11 17:03:00,
2013-01-11 11:08:00,61.4,48.7,29.80,South,190,20.1,20.1,63,0.00,CLR,,0.00,452.1,WeatherDisplay:10.37,2013-01-11 17:08:00,
2013-01-11 11:13:00,61.3,49.4,29.80,SSW,203,13.8,23.0,65,0.00,CLR,,0.00,566.5,WeatherDisplay:10.37,2013-01-11 17:13:00,
2013-01-11 11:18:00,61.0,49.6,29.80,SSW,196,18.0,23.0,66,0.00,CLR,,0.00,586.3,WeatherDisplay:10.37,2013-01-11 17:18:00,
2013-01-11 11:23:00,61.7,49.0,29.80,SSW,200,17.7,25.3,63,0.00,CLR,,0.00,632.5,WeatherDisplay:10.37,2013-01-11 17:23:00,
2013-01-11 11:28:00,62.0,49.7,29.80,South,169,8.3,18.4,64,0.00,CLR,,0.00,492.8,WeatherDisplay:10.37,2013-01-11 17:28:00,
2013-01-11 11:33:00,61.9,49.6,29.79,SSW,196,10.8,13.8,64,0.00,CLR,,0.00,548.9,WeatherDisplay:10.37,2013-01-11 17:33:00,
2013-01-11 11:38:00,61.7,49.0,29.79,South,174,11.9,19.6,63,0.00,CLR,,0.00,394.9,WeatherDisplay:10.37,2013-01-11 17:38:00,
2013-01-11 11:43:00,62.0,49.3,29.79,SSE,158,12.0,13.8,63,0.00,CLR,,0.00,361.9,WeatherDisplay:10.37,2013-01-11 17:43:00,
2013-01-11 11:48:00,62.3,49.1,29.78,South,186,12.1,20.0,62,0.00,CLR,,0.00,443.3,WeatherDisplay:10.37,2013-01-11 17:48:00,
2013-01-11 11:53:00,62.7,49.1,29.77,South,176,9.3,15.0,61,0.00,CLR,,0.00,331.1,WeatherDisplay:10.37,2013-01-11 17:53:00,
2013-01-11 11:58:00,62.3,48.7,29.77,SSW,199,18.3,21.9,61,0.00,CLR,,0.00,426.8,WeatherDisplay:10.37,2013-01-11 17:58:00,
2013-01-11 12:03:00,63.3,49.6,29.76,South,183,12.3,19.6,61,0.00,CLR,,0.00,563.2,WeatherDisplay:10.37,2013-01-11 18:03:00,
2013-01-11 12:08:00,63.8,50.1,29.76,South,190,13.4,19.6,61,0.00,CLR,,0.00,635.8,WeatherDisplay:10.37,2013-01-11 18:08:00,
2013-01-11 12:13:00,63.6,49.9,29.76,South,189,19.8,24.2,61,0.00,CLR,,0.00,545.6,WeatherDisplay:10.37,2013-01-11 18:13:00,
2013-01-11 12:18:00,64.1,50.4,29.75,SSW,201,12.2,20.7,61,0.00,CLR,,0.00,701.8,WeatherDisplay:10.37,2013-01-11 18:18:00,
2013-01-11 12:23:00,65.1,50.9,29.75,South,175,14.3,14.3,60,0.00,CLR,,0.00,650.1,WeatherDisplay:10.37,2013-01-11 18:23:00,
2013-01-11 12:28:00,64.3,50.1,29.75,South,181,15.4,21.9,60,0.00,CLR,,0.00,630.3,WeatherDisplay:10.37,2013-01-11 18:28:00,
2013-01-11 12:33:00,64.1,50.4,29.74,South,189,14.1,21.9,61,0.00,CLR,,0.00,558.8,WeatherDisplay:10.37,2013-01-11 18:33:00,
2013-01-11 12:38:00,64.3,50.1,29.74,South,191,15.5,18.4,60,0.00,CLR,,0.00,568.7,WeatherDisplay:10.37,2013-01-11 18:38:00,
2013-01-11 12:43:00,64.2,49.6,29.74,SSW,212,18.9,25.3,59,0.00,CLR,,0.00,443.3,WeatherDisplay:10.37,2013-01-11 18:43:00,
2013-01-11 12:48:00,65.1,49.5,29.73,SSW,211,17.9,23.0,57,0.00,CLR,,0.00,694.1,WeatherDisplay:10.37,2013-01-11 18:48:00,
2013-01-11 12:53:00,66.2,51.4,29.72,South,191,9.9,23.0,59,0.00,CLR,,0.00,627.0,WeatherDisplay:10.37,2013-01-11 18:53:00,
2013-01-11 12:58:00,65.7,50.0,29.72,South,188,18.1,24.2,57,0.00,CLR,,0.00,655.6,WeatherDisplay:10.37,2013-01-11 18:58:00,
2013-01-11 13:03:00,65.7,50.5,29.72,South,181,20.8,27.6,58,0.00,CLR,,0.00,668.8,WeatherDisplay:10.37,2013-01-11 19:03:00,
2013-01-11 13:08:00,66.4,50.2,29.71,South,185,18.5,25.3,56,0.00,CLR,,0.00,605.0,WeatherDisplay:10.37,2013-01-11 19:08:00,
2013-01-11 13:13:00,66.1,50.4,29.71,SSW,203,20.7,26.5,57,0.00,CLR,,0.00,584.1,WeatherDisplay:10.37,2013-01-11 19:13:00,
2013-01-11 13:18:00,66.0,50.8,29.71,SW,215,21.2,24.2,58,0.00,CLR,,0.00,512.6,WeatherDisplay:10.37,2013-01-11 19:18:00,
2013-01-11 13:23:00,65.8,50.6,29.71,South,188,15.1,20.7,58,0.00,CLR,,0.00,436.7,WeatherDisplay:10.37,2013-01-11 19:23:00,
2013-01-11 13:28:00,66.0,50.3,29.71,SSW,195,12.3,18.4,57,0.00,CLR,,0.00,347.6,WeatherDisplay:10.37,2013-01-11 19:28:00,
2013-01-11 13:33:00,65.7,51.9,29.71,SSW,194,8.2,18.4,61,0.00,CLR,,0.00,290.4,WeatherDisplay:10.37,2013-01-11 19:33:00,
2013-01-11 13:38:00,65.9,50.7,29.71,SSW,199,14.2,16.1,58,0.00,CLR,,0.00,235.4,WeatherDisplay:10.37,2013-01-11 19:38:00,
2013-01-11 13:43:00,68.2,51.4,29.71,South,189,10.6,17.3,55,0.00,CLR,,0.00,628.1,WeatherDisplay:10.37,2013-01-11 19:43:00,
2013-01-11 13:48:00,68.4,50.6,29.71,SSW,193,16.5,21.9,53,0.00,CLR,,0.00,548.9,WeatherDisplay:10.37,2013-01-11 19:48:00,
2013-01-11 13:53:00,68.8,51.5,29.71,SSW,199,12.7,19.6,54,0.00,CLR,,0.00,572.0,WeatherDisplay:10.37,2013-01-11 19:53:00,
2013-01-11 13:58:00,69.1,52.2,29.70,SSW,201,11.2,18.4,55,0.00,CLR,,0.00,456.5,WeatherDisplay:10.37,2013-01-11 19:58:00,
2013-01-11 14:03:00,68.9,51.1,29.70,SSW,211,16.3,21.9,53,0.00,CLR,,0.00,411.4,WeatherDisplay:10.37,2013-01-11 20:03:00,
2013-01-11 14:08:00,69.1,51.2,29.70,SW,217,16.2,23.0,53,0.00,CLR,,0.00,204.6,WeatherDisplay:10.37,2013-01-11 20:08:00,
2013-01-11 14:13:00,69.2,50.8,29.70,South,191,14.4,23.0,52,0.00,CLR,,0.00,568.7,WeatherDisplay:10.37,2013-01-11 20:13:00,
2013-01-11 14:18:00,69.3,50.9,29.70,SSW,199,20.1,28.0,52,0.00,CLR,,0.00,531.3,WeatherDisplay:10.37,2013-01-11 20:18:00,
2013-01-11 14:23:00,68.9,49.5,29.70,SSW,203,17.9,24.2,50,0.00,CLR,,0.00,413.6,WeatherDisplay:10.37,2013-01-11 20:23:00,
2013-01-11 14:28:00,68.8,48.9,29.69,South,191,20.5,24.2,49,0.00,CLR,,0.00,456.5,WeatherDisplay:10.37,2013-01-11 20:28:00,
2013-01-11 14:33:00,69.3,49.9,29.69,South,181,15.9,24.2,50,0.00,CLR,,0.00,561.0,WeatherDisplay:10.37,2013-01-11 20:33:00,
2013-01-11 14:38:00,69.3,49.9,29.69,South,185,12.8,17.0,50,0.00,CLR,,0.00,326.7,WeatherDisplay:10.37,2013-01-11 20:38:00,
2013-01-11 14:43:00,69.6,50.7,29.68,South,187,14.6,17.3,51,0.00,CLR,,0.00,523.6,WeatherDisplay:10.37,2013-01-11 20:43:00,
2013-01-11 14:48:00,69.7,50.8,29.69,SSW,206,14.6,16.1,51,0.00,CLR,,0.00,477.4,WeatherDisplay:10.37,2013-01-11 20:48:00,
2013-01-11 14:53:00,69.6,50.7,29.68,SSW,197,11.9,20.0,51,0.00,CLR,,0.00,466.4,WeatherDisplay:10.37,2013-01-11 20:53:00,
2013-01-11 14:58:00,68.9,50.5,29.68,SSW,192,16.2,25.3,52,0.00,CLR,,0.00,110.0,WeatherDisplay:10.37,2013-01-11 20:58:00,
2013-01-11 15:03:00,69.1,49.7,29.68,SSW,198,20.7,23.0,50,0.00,CLR,,0.00,53.9,WeatherDisplay:10.37,2013-01-11 21:03:00,
2013-01-11 15:08:00,68.7,49.8,29.68,South,176,20.7,29.9,51,0.00,CLR,,0.00,46.2,WeatherDisplay:10.37,2013-01-11 21:08:00,
2013-01-11 15:13:00,68.2,49.9,29.68,South,186,12.5,19.6,52,0.00,CLR,,0.00,51.7,WeatherDisplay:10.37,2013-01-11 21:13:00,
2013-01-11 15:18:00,68.1,50.3,29.68,South,190,21.0,29.9,53,0.00,CLR,,0.00,77.0,WeatherDisplay:10.37,2013-01-11 21:18:00,
2013-01-11 15:23:00,68.1,50.8,29.68,SSW,199,14.5,25.3,54,0.00,CLR,,0.00,127.6,WeatherDisplay:10.37,2013-01-11 21:23:00,
2013-01-11 15:28:00,68.6,50.8,29.69,SSW,212,21.0,23.0,53,0.00,CLR,,0.00,129.8,WeatherDisplay:10.37,2013-01-11 21:28:00,
2013-01-11 15:33:00,68.2,50.4,29.69,SSW,203,21.3,26.5,53,0.00,CLR,,0.00,99.0,WeatherDisplay:10.37,2013-01-11 21:33:00,
2013-01-11 15:38:00,67.6,50.9,29.70,South,186,20.9,26.5,55,0.00,CLR,,0.00,100.1,WeatherDisplay:10.37,2013-01-11 21:38:00,
2013-01-11 15:43:00,67.4,50.7,29.69,South,180,17.1,22.0,55,0.00,CLR,,0.00,145.2,WeatherDisplay:10.37,2013-01-11 21:43:00,
2013-01-11 15:48:00,67.1,50.9,29.69,SSW,195,15.9,24.2,56,0.00,CLR,,0.00,107.8,WeatherDisplay:10.37,2013-01-11 21:48:00,
2013-01-11 15:53:00,67.4,51.6,29.69,SSW,192,16.6,25.3,57,0.00,CLR,,0.00,139.7,WeatherDisplay:10.37,2013-01-11 21:53:00,
2013-01-11 15:58:00,68.4,52.1,29.69,SSW,198,15.3,18.4,56,0.00,CLR,,0.00,185.9,WeatherDisplay:10.37,2013-01-11 21:58:00,
2013-01-11 16:03:00,68.0,51.7,29.69,SSW,195,11.5,20.7,56,0.00,CLR,,0.00,61.6,WeatherDisplay:10.37,2013-01-11 22:03:00,
2013-01-11 16:08:00,67.9,52.6,29.69,SSW,201,18.1,19.0,58,0.00,CLR,,0.00,58.3,WeatherDisplay:10.37,2013-01-11 22:08:00,
2013-01-11 16:13:00,68.2,52.9,29.69,SSW,199,11.7,18.4,58,0.00,CLR,,0.00,69.3,WeatherDisplay:10.37,2013-01-11 22:13:00,
2013-01-11 16:18:00,67.7,52.9,29.69,South,190,15.1,21.9,59,0.00,CLR,,0.00,73.7,WeatherDisplay:10.37,2013-01-11 22:18:00,
2013-01-11 16:23:00,67.2,52.4,29.69,SSW,205,19.5,25.0,59,0.00,CLR,,0.00,35.2,WeatherDisplay:10.37,2013-01-11 22:23:00,
2013-01-11 16:28:00,66.9,53.0,29.69,South,187,14.9,21.9,61,0.00,CLR,,0.00,44.0,WeatherDisplay:10.37,2013-01-11 22:28:00,
2013-01-11 16:33:00,66.7,53.3,29.69,South,187,15.8,19.0,62,0.00,CLR,,0.00,51.7,WeatherDisplay:10.37,2013-01-11 22:33:00,
2013-01-11 16:38:00,66.4,53.0,29.69,South,189,17.9,24.2,62,0.00,CLR,,0.00,68.2,WeatherDisplay:10.37,2013-01-11 22:38:00,
2013-01-11 16:43:00,66.2,52.8,29.69,South,185,14.9,16.0,62,0.00,CLR,,0.00,58.3,WeatherDisplay:10.37,2013-01-11 22:43:00,
2013-01-11 16:48:00,65.9,52.9,29.69,South,190,13.2,18.4,63,0.00,CLR,,0.00,50.6,WeatherDisplay:10.37,2013-01-11 22:48:00,
2013-01-11 16:53:00,66.0,52.6,29.69,SSW,193,15.7,24.2,62,0.00,CLR,,0.00,58.3,WeatherDisplay:10.37,2013-01-11 22:53:00,
2013-01-11 16:58:00,65.4,52.9,29.69,SSW,195,14.5,17.3,64,0.00,CLR,,0.00,50.6,WeatherDisplay:10.37,2013-01-11 22:58:00,
2013-01-11 17:03:00,65.4,52.9,29.69,SSW,197,13.2,16.1,64,0.00,CLR,,0.00,35.2,WeatherDisplay:10.37,2013-01-11 23:03:00,
2013-01-11 17:08:00,65.4,52.9,29.69,South,176,17.1,20.7,64,0.00,CLR,,0.00,28.6,WeatherDisplay:10.37,2013-01-11 23:08:00,
2013-01-11 17:13:00,64.8,53.2,29.69,SSW,209,15.2,19.0,66,0.00,CLR,,0.00,27.5,WeatherDisplay:10.37,2013-01-11 23:13:00,
2013-01-11 17:18:00,65.1,53.0,29.69,South,189,14.6,19.6,65,0.00,CLR,,0.00,35.2,WeatherDisplay:10.37,2013-01-11 23:18:00,
2013-01-11 17:23:00,64.8,53.2,29.69,South,185,13.3,17.3,66,0.00,CLR,,0.00,33.0,WeatherDisplay:10.37,2013-01-11 23:23:00,
2013-01-11 17:28:00,64.2,53.4,29.69,South,183,10.8,15.0,68,0.00,CLR,,0.00,19.8,WeatherDisplay:10.37,2013-01-11 23:28:00,
2013-01-11 17:33:00,63.5,53.1,29.70,South,178,9.3,14.0,69,0.00,CLR,,0.00,7.7,WeatherDisplay:10.37,2013-01-11 23:33:00,
2013-01-11 17:38:00,63.3,53.0,29.70,SSW,195,9.8,11.0,69,0.00,CLR,,0.00,0.0,WeatherDisplay:10.37,2013-01-11 23:38:00,
2013-01-11 17:43:00,63.2,53.3,29.70,South,176,9.4,14.0,70,0.00,CLR,,0.00,0.0,WeatherDisplay:10.37,2013-01-11 23:43:00,
2013-01-11 17:48:00,63.3,53.0,29.70,South,174,8.0,11.5,69,0.00,CLR,,0.00,0.0,WeatherDisplay:10.37,2013-01-11 23:48:00,
2013-01-11 17:53:00,62.6,52.7,29.71,South,175,6.4,9.2,70,0.00,CLR,,0.00,0.0,WeatherDisplay:10.37,2013-01-11 23:53:00,
2013-01-11 17:58:00,62.1,52.6,29.71,South,169,6.8,9.2,71,0.00,CLR,,0.00,0.0,WeatherDisplay:10.37,2013-01-11 23:58:00,
2013-01-11 18:03:00,61.9,52.4,29.71,SSE,168,7.3,9.2,71,0.00,CLR,,0.00,0.0,WeatherDisplay:10.37,2013-01-12 00:03:00,
2013-01-11 18:08:00,61.5,52.4,29.71,SSE,168,6.9,8.1,72,0.00,CLR,,0.00,0.0,WeatherDisplay:10.37,2013-01-12 00:08:00,
2013-01-11 18:13:00,61.1,52.4,29.72,SSE,168,7.5,9.2,73,0.00,CLR,,0.00,0.0,WeatherDisplay:10.37,2013-01-12 00:13:00,
2013-01-11 18:18:00,60.8,52.1,29.71,SSE,168,6.8,8.1,73,0.00,CLR,,0.00,0.0,WeatherDisplay:10.37,2013-01-12 00:18:00,
2013-01-11 18:23:00,60.0,52.1,29.71,SSE,168,5.6,6.0,75,0.00,CLR,,0.00,0.0,WeatherDisplay:10.37,2013-01-12 00:23:00,
2013-01-11 18:28:00,60.0,52.1,29.71,SSE,165,7.5,10.4,75,0.00,CLR,,0.00,0.0,WeatherDisplay:10.37,2013-01-12 00:28:00,
2013-01-11 18:33:00,59.8,51.9,29.71,SSE,164,6.7,7.0,75,0.00,CLR,,0.00,0.0,WeatherDisplay:10.37,2013-01-12 00:33:00,
2013-01-11 18:38:00,59.7,52.1,29.72,SSE,164,6.6,8.1,76,0.00,CLR,,0.00,0.0,WeatherDisplay:10.37,2013-01-12 00:38:00,
2013-01-11 18:43:00,59.5,51.9,29.72,SSE,164,6.5,8.0,76,0.00,CLR,,0.00,0.0,WeatherDisplay:10.37,2013-01-12 00:43:00,
2013-01-11 18:48:00,59.1,51.9,29.71,SSE,164,5.2,8.1,77,0.00,CLR,,0.00,0.0,WeatherDisplay:10.37,2013-01-12 00:48:00,
2013-01-11 18:53:00,59.5,52.3,29.71,SSE,164,6.1,9.2,77,0.00,CLR,,0.00,0.0,WeatherDisplay:10.37,2013-01-12 00:53:00,
2013-01-11 18:58:00,59.4,52.2,29.72,SSE,163,5.8,9.2,77,0.00,CLR,,0.00,0.0,WeatherDisplay:10.37,2013-01-12 00:58:00,
2013-01-11 19:03:00,59.5,52.3,29.72,SSE,164,7.5,8.1,77,0.00,CLR,,0.00,0.0,WeatherDisplay:10.37,2013-01-12 01:03:00,
2013-01-11 19:08:00,59.4,52.2,29.72,SSE,164,7.5,9.2,77,0.00,CLR,,0.00,0.0,WeatherDisplay:10.37,2013-01-12 01:08:00,
2013-01-11 19:13:00,59.2,52.0,29.72,SSE,165,6.6,8.1,77,0.00,CLR,,0.00,0.0,WeatherDisplay:10.37,2013-01-12 01:13:00,
2013-01-11 19:18:00,59.0,52.1,29.73,SSE,165,6.4,8.1,78,0.00,CLR,,0.00,0.0,WeatherDisplay:10.37,2013-01-12 01:18:00,
2013-01-11 19:23:00,58.8,52.0,29.73,SSE,165,6.6,8.1,78,0.00,CLR,,0.00,0.0,WeatherDisplay:10.37,2013-01-12 01:23:00,
2013-01-11 19:28:00,58.5,51.7,29.73,SSE,165,4.7,6.9,78,0.00,CLR,,0.00,0.0,WeatherDisplay:10.37,2013-01-12 01:28:00,
2013-01-11 19:33:00,58.2,51.7,29.73,SSE,165,5.2,6.9,79,0.00,CLR,,0.00,0.0,WeatherDisplay:10.37,2013-01-12 01:33:00,
2013-01-11 19:38:00,58.3,51.8,29.73,SSE,165,4.8,5.8,79,0.00,CLR,,0.00,0.0,WeatherDisplay:10.37,2013-01-12 01:38:00,
2013-01-11 19:43:00,57.7,51.6,29.73,SSE,165,5.5,5.8,80,0.00,CLR,,0.00,0.0,WeatherDisplay:10.37,2013-01-12 01:43:00,
2013-01-11 19:48:00,58.1,51.6,29.73,SSE,165,5.8,6.9,79,0.00,CLR,,0.00,0.0,WeatherDisplay:10.37,2013-01-12 01:48:00,
2013-01-11 19:53:00,57.9,51.4,29.73,SSE,165,4.5,7.0,79,0.00,CLR,,0.00,0.0,WeatherDisplay:10.37,2013-01-12 01:53:00,
2013-01-11 19:58:00,57.9,51.4,29.73,SSE,165,5.2,5.8,79,0.00,CLR,,0.00,0.0,WeatherDisplay:10.37,2013-01-12 01:58:00,
2013-01-11 20:03:00,58.1,51.6,29.73,SSE,165,4.5,6.9,79,0.00,CLR,,0.00,0.0,WeatherDisplay:10.37,2013-01-12 02:03:00,
2013-01-11 20:08:00,58.1,51.6,29.73,SSE,165,4.7,5.8,79,0.00,CLR,,0.00,0.0,WeatherDisplay:10.37,2013-01-12 02:08:00,
2013-01-11 20:13:00,57.9,51.4,29.73,SSE,165,7.0,7.0,79,0.00,CLR,,0.00,0.0,WeatherDisplay:10.37,2013-01-12 02:13:00,
2013-01-11 20:18:00,58.1,51.6,29.73,SSE,165,5.7,7.0,79,0.00,CLR,,0.00,0.0,WeatherDisplay:10.37,2013-01-12 02:18:00,
2013-01-11 20:23:00,57.8,51.3,29.73,SSE,165,4.8,5.8,79,0.00,CLR,,0.00,0.0,WeatherDisplay:10.37,2013-01-12 02:23:00,
2013-01-11 20:28:00,57.9,51.4,29.73,SSE,165,5.3,6.9,79,0.00,CLR,,0.00,0.0,WeatherDisplay:10.37,2013-01-12 02:28:00,
2013-01-11 20:33:00,57.8,51.3,29.74,SSE,165,5.6,6.0,79,0.00,CLR,,0.00,0.0,WeatherDisplay:10.37,2013-01-12 02:33:00,
2013-01-11 20:38:00,57.4,51.3,29.73,SSE,165,6.5,9.2,80,0.00,CLR,,0.00,0.0,WeatherDisplay:10.37,2013-01-12 02:38:00,
2013-01-11 20:43:00,57.8,51.3,29.74,SSE,164,5.4,8.1,79,0.00,CLR,,0.00,0.0,WeatherDisplay:10.37,2013-01-12 02:43:00,
2013-01-11 20:48:00,57.4,51.3,29.74,SSE,164,5.6,5.8,80,0.00,CLR,,0.00,0.0,WeatherDisplay:10.37,2013-01-12 02:48:00,
2013-01-11 20:53:00,57.6,51.5,29.73,SSE,164,5.3,8.1,80,0.00,CLR,,0.00,0.0,WeatherDisplay:10.37,2013-01-12 02:53:00,
2013-01-11 20:58:00,57.6,51.1,29.73,SSE,157,6.8,11.5,79,0.00,CLR,,0.00,0.0,WeatherDisplay:10.37,2013-01-12 02:58:00,
2013-01-11 21:03:00,57.3,51.2,29.73,SSE,156,5.4,6.9,80,0.00,CLR,,0.00,0.0,WeatherDisplay:10.37,2013-01-12 03:03:00,
2013-01-11 21:08:00,57.3,51.2,29.74,SSE,156,5.2,5.8,80,0.00,CLR,,0.00,0.0,WeatherDisplay:10.37,2013-01-12 03:08:00,
2013-01-11 21:13:00,56.9,51.1,29.74,SSE,156,5.5,6.9,81,0.00,CLR,,0.00,0.0,WeatherDisplay:10.37,2013-01-12 03:13:00,
2013-01-11 21:18:00,56.8,51.0,29.74,SSE,156,6.2,6.9,81,0.00,CLR,,0.00,0.0,WeatherDisplay:10.37,2013-01-12 03:18:00,
2013-01-11 21:23:00,56.5,51.1,29.74,SSE,156,5.8,8.0,82,0.00,CLR,,0.00,0.0,WeatherDisplay:10.37,2013-01-12 03:23:00,
2013-01-11 21:28:00,56.4,51.3,29.74,SSE,156,5.3,8.1,83,0.00,CLR,,0.00,0.0,WeatherDisplay:10.37,2013-01-12 03:28:00,
2013-01-11 21:33:00,56.2,51.1,29.74,SSE,156,5.2,5.8,83,0.00,CLR,,0.00,0.0,WeatherDisplay:10.37,2013-01-12 03:33:00,
2013-01-11 21:38:00,56.1,51.0,29.75,SSE,156,5.7,7.0,83,0.00,CLR,,0.00,0.0,WeatherDisplay:10.37,2013-01-12 03:38:00,
2013-01-11 21:43:00,55.9,51.1,29.75,SSE,156,5.8,6.0,84,0.00,CLR,,0.00,0.0,WeatherDisplay:10.37,2013-01-12 03:43:00,
2013-01-11 21:48:00,55.8,51.0,29.75,SSE,156,5.2,6.9,84,0.00,CLR,,0.00,0.0,WeatherDisplay:10.37,2013-01-12 03:48:00,
2013-01-11 21:53:00,55.9,51.5,29.75,SSE,156,4.6,6.9,85,0.00,CLR,,0.00,0.0,WeatherDisplay:10.37,2013-01-12 03:53:00,
2013-01-11 21:58:00,56.1,51.7,29.75,SSE,156,4.2,5.8,85,0.00,CLR,,0.00,0.0,WeatherDisplay:10.37,2013-01-12 03:58:00,
2013-01-11 22:03:00,56.1,51.7,29.75,SSE,156,4.8,7.0,85,0.00,CLR,,0.00,0.0,WeatherDisplay:10.37,2013-01-12 04:03:00,
2013-01-11 22:08:00,56.0,51.6,29.75,SSE,156,4.5,6.0,85,0.00,CLR,,0.00,0.0,WeatherDisplay:10.37,2013-01-12 04:08:00,
2013-01-11 22:13:00,56.3,52.2,29.74,SSE,156,5.4,6.9,86,0.00,CLR,,0.00,0.0,WeatherDisplay:10.37,2013-01-12 04:13:00,
2013-01-11 22:18:00,56.3,52.2,29.74,SSE,155,6.5,8.1,86,0.00,CLR,,0.00,0.0,WeatherDisplay:10.37,2013-01-12 04:18:00,
2013-01-11 22:23:00,56.3,52.5,29.75,SSE,155,6.7,9.2,87,0.00,CLR,,0.00,0.0,WeatherDisplay:10.37,2013-01-12 04:23:00,
2013-01-11 22:28:00,56.7,52.9,29.75,SSE,155,4.5,6.9,87,0.00,CLR,,0.00,0.0,WeatherDisplay:10.37,2013-01-12 04:28:00,
2013-01-11 22:33:00,56.3,52.5,29.75,SSE,155,4.8,4.8,87,0.00,CLR,,0.00,0.0,WeatherDisplay:10.37,2013-01-12 04:33:00,
2013-01-11 22:38:00,56.4,52.9,29.75,SSE,155,5.8,6.9,88,0.00,CLR,,0.00,0.0,WeatherDisplay:10.37,2013-01-12 04:38:00,
2013-01-11 22:43:00,56.3,52.8,29.76,SSE,155,5.0,5.8,88,0.00,CLR,,0.00,0.0,WeatherDisplay:10.37,2013-01-12 04:43:00,
2013-01-11 22:48:00,56.3,53.1,29.75,SSE,155,4.1,5.8,89,0.00,CLR,,0.00,0.0,WeatherDisplay:10.37,2013-01-12 04:48:00,
2013-01-11 22:53:00,56.7,53.5,29.75,SSE,155,2.9,5.8,89,0.00,CLR,,0.00,0.0,WeatherDisplay:10.37,2013-01-12 04:53:00,
2013-01-11 22:58:00,56.7,53.5,29.75,SSE,155,4.7,5.8,89,0.00,CLR,,0.00,0.0,WeatherDisplay:10.37,2013-01-12 04:58:00,
2013-01-11 23:00:00,56.5,53.3,29.75,SSE,155,2.9,6.0,89,0.00,CLR,,0.00,0.0,WeatherDisplay:10.37,2013-01-12 05:00:00,
2013-01-11 23:01:00,56.4,53.2,29.75,SSE,155,3.6,5.0,89,0.00,CLR,,0.00,0.0,WeatherDisplay:10.37,2013-01-12 05:01:00,
2013-01-11 23:03:00,56.6,53.4,29.75,SSE,155,5.2,6.0,89,0.00,CLR,,0.00,0.0,WeatherDisplay:10.37,2013-01-12 05:03:00,
2013-01-11 23:08:00,56.6,53.7,29.75,SSE,155,5.1,5.8,90,0.00,CLR,,0.00,0.0,WeatherDisplay:10.37,2013-01-12 05:08:00,
2013-01-11 23:13:00,56.8,53.9,29.75,SSE,155,5.7,6.9,90,0.00,CLR,,0.00,0.0,WeatherDisplay:10.37,2013-01-12 05:13:00,
2013-01-11 23:18:00,56.8,53.9,29.75,SSE,155,3.6,5.8,90,0.00,CLR,,0.00,0.0,WeatherDisplay:10.37,2013-01-12 05:18:00,
2013-01-11 23:23:00,56.7,54.1,29.75,SSE,155,4.2,5.0,91,0.00,CLR,,0.00,0.0,WeatherDisplay:10.37,2013-01-12 05:23:00,
2013-01-11 23:28:00,57.6,55.0,29.75,SSE,155,5.9,8.1,91,0.00,CLR,,0.00,0.0,WeatherDisplay:10.37,2013-01-12 05:28:00,
2013-01-11 23:33:00,57.9,55.3,29.75,South,185,7.7,10.4,91,0.00,CLR,,0.00,0.0,WeatherDisplay:10.37,2013-01-12 05:33:00,
2013-01-11 23:38:00,58.9,56.0,29.75,South,187,6.6,9.2,90,0.00,CLR,,0.00,0.0,WeatherDisplay:10.37,2013-01-12 05:38:00,
2013-01-11 23:43:00,59.4,56.5,29.75,South,185,8.3,11.5,90,0.00,CLR,,0.00,0.0,WeatherDisplay:10.37,2013-01-12 05:43:00,
2013-01-11 23:48:00,59.6,56.7,29.75,South,187,9.8,11.5,90,0.00,CLR,,0.00,0.0,WeatherDisplay:10.37,2013-01-12 05:48:00,
2013-01-11 23:53:00,59.9,56.6,29.75,SSW,202,11.9,15.0,89,0.00,CLR,,0.00,0.0,WeatherDisplay:10.37,2013-01-12 05:53:00,
2013-01-11 23:58:00,60.0,56.7,29.75,SSW,192,9.9,12.0,89,0.00,CLR,,0.00,0.0,WeatherDisplay:10.37,2013-01-12 05:58:00,